sensor_id;sensor_type;location;lat;lon;timestamp;P1;durP1;ratioP1;P2;durP2;ratioP2
21543;SDS011;10933;50.754;11.508;2023-06-22T00:00:58;12.57;;;11.75;;
21543;SDS011;10933;50.754;11.508;2023-06-22T00:03:25;11.88;;;10.82;;
21543;SDS011;10933;50.754;11.508;2023-06-22T00:05:52;12.43;;;11.57;;
21543;SDS011;10933;50.754;11.508;2023-06-22T00:08:18;14.00;;;12.60;;
21543;SDS011;10933;50.754;11.508;2023-06-22T00:10:45;14.10;;;12.80;;
21543;SDS011;10933;50.754;11.508;2023-06-22T00:13:12;15.02;;;13.48;;
21543;SDS011;10933;50.754;11.508;2023-06-22T00:15:41;14.55;;;13.15;;
21543;SDS011;10933;50.754;11.508;2023-06-22T00:18:07;14.82;;;13.50;;
21543;SDS011;10933;50.754;11.508;2023-06-22T00:20:34;15.07;;;13.73;;
21543;SDS011;10933;50.754;11.508;2023-06-22T00:23:04;15.00;;;13.13;;
21543;SDS011;10933;50.754;11.508;2023-06-22T00:25:35;14.18;;;12.63;;
21543;SDS011;10933;50.754;11.508;2023-06-22T00:28:07;13.93;;;12.77;;
21543;SDS011;10933;50.754;11.508;2023-06-22T00:30:33;13.68;;;12.43;;
21543;SDS011;10933;50.754;11.508;2023-06-22T00:33:00;12.30;;;11.48;;
21543;SDS011;10933;50.754;11.508;2023-06-22T00:35:26;13.50;;;12.48;;
21543;SDS011;10933;50.754;11.508;2023-06-22T00:37:56;13.50;;;12.52;;
21543;SDS011;10933;50.754;11.508;2023-06-22T00:40:26;17.48;;;11.68;;
21543;SDS011;10933;50.754;11.508;2023-06-22T00:43:01;12.43;;;11.73;;
21543;SDS011;10933;50.754;11.508;2023-06-22T00:45:27;13.73;;;12.65;;
21543;SDS011;10933;50.754;11.508;2023-06-22T00:47:53;15.90;;;14.32;;
21543;SDS011;10933;50.754;11.508;2023-06-22T00:50:25;13.75;;;12.60;;
21543;SDS011;10933;50.754;11.508;2023-06-22T00:52:57;13.45;;;12.55;;
21543;SDS011;10933;50.754;11.508;2023-06-22T00:55:37;14.43;;;13.10;;
21543;SDS011;10933;50.754;11.508;2023-06-22T00:58:16;11.93;;;11.23;;
21543;SDS011;10933;50.754;11.508;2023-06-22T01:00:46;13.05;;;11.80;;
21543;SDS011;10933;50.754;11.508;2023-06-22T01:03:13;13.30;;;11.88;;
21543;SDS011;10933;50.754;11.508;2023-06-22T01:05:41;12.73;;;11.82;;
21543;SDS011;10933;50.754;11.508;2023-06-22T01:13:46;15.35;;;12.65;;
21543;SDS011;10933;50.754;11.508;2023-06-22T01:16:30;14.95;;;13.65;;
21543;SDS011;10933;50.754;11.508;2023-06-22T01:19:43;14.20;;;13.10;;
21543;SDS011;10933;50.754;11.508;2023-06-22T01:22:13;13.05;;;12.25;;
21543;SDS011;10933;50.754;11.508;2023-06-22T01:25:04;21.27;;;12.68;;
21543;SDS011;10933;50.754;11.508;2023-06-22T01:27:53;14.73;;;13.48;;
21543;SDS011;10933;50.754;11.508;2023-06-22T01:30:34;14.55;;;13.43;;
21543;SDS011;10933;50.754;11.508;2023-06-22T01:33:00;19.33;;;13.00;;
21543;SDS011;10933;50.754;11.508;2023-06-22T01:35:30;14.65;;;13.52;;
21543;SDS011;10933;50.754;11.508;2023-06-22T01:37:56;15.32;;;13.80;;
21543;SDS011;10933;50.754;11.508;2023-06-22T01:40:23;21.75;;;13.77;;
21543;SDS011;10933;50.754;11.508;2023-06-22T01:42:50;14.23;;;12.88;;
21543;SDS011;10933;50.754;11.508;2023-06-22T01:45:16;13.60;;;12.80;;
21543;SDS011;10933;50.754;11.508;2023-06-22T01:47:44;13.90;;;12.88;;
21543;SDS011;10933;50.754;11.508;2023-06-22T01:50:11;13.50;;;12.57;;
21543;SDS011;10933;50.754;11.508;2023-06-22T01:52:37;15.50;;;12.63;;
21543;SDS011;10933;50.754;11.508;2023-06-22T01:55:03;12.35;;;11.75;;
21543;SDS011;10933;50.754;11.508;2023-06-22T01:57:30;11.20;;;10.40;;
21543;SDS011;10933;50.754;11.508;2023-06-22T02:00:04;12.32;;;11.63;;
21543;SDS011;10933;50.754;11.508;2023-06-22T02:05:24;12.32;;;11.02;;
21543;SDS011;10933;50.754;11.508;2023-06-22T02:10:36;13.27;;;12.57;;
21543;SDS011;10933;50.754;11.508;2023-06-22T02:13:06;13.23;;;12.27;;
21543;SDS011;10933;50.754;11.508;2023-06-22T02:15:34;14.43;;;13.00;;
21543;SDS011;10933;50.754;11.508;2023-06-22T02:18:01;13.07;;;12.32;;
21543;SDS011;10933;50.754;11.508;2023-06-22T02:20:28;13.65;;;12.75;;
21543;SDS011;10933;50.754;11.508;2023-06-22T02:22:53;13.02;;;12.23;;
21543;SDS011;10933;50.754;11.508;2023-06-22T02:25:19;13.35;;;12.52;;
21543;SDS011;10933;50.754;11.508;2023-06-22T02:27:46;13.13;;;11.93;;
21543;SDS011;10933;50.754;11.508;2023-06-22T02:30:12;12.35;;;11.20;;
21543;SDS011;10933;50.754;11.508;2023-06-22T02:32:41;13.00;;;12.20;;
21543;SDS011;10933;50.754;11.508;2023-06-22T02:35:07;11.90;;;11.20;;
21543;SDS011;10933;50.754;11.508;2023-06-22T02:37:37;22.85;;;11.68;;
21543;SDS011;10933;50.754;11.508;2023-06-22T02:40:06;13.82;;;12.93;;
21543;SDS011;10933;50.754;11.508;2023-06-22T02:42:39;12.95;;;12.05;;
21543;SDS011;10933;50.754;11.508;2023-06-22T02:45:05;12.40;;;11.70;;
21543;SDS011;10933;50.754;11.508;2023-06-22T02:47:31;13.60;;;12.65;;
21543;SDS011;10933;50.754;11.508;2023-06-22T02:49:57;12.50;;;11.77;;
21543;SDS011;10933;50.754;11.508;2023-06-22T02:52:23;12.90;;;12.18;;
21543;SDS011;10933;50.754;11.508;2023-06-22T02:54:49;13.02;;;12.23;;
21543;SDS011;10933;50.754;11.508;2023-06-22T02:57:14;13.65;;;12.35;;
21543;SDS011;10933;50.754;11.508;2023-06-22T02:59:40;13.25;;;12.27;;
21543;SDS011;10933;50.754;11.508;2023-06-22T03:02:07;12.88;;;12.07;;
21543;SDS011;10933;50.754;11.508;2023-06-22T03:04:36;14.25;;;13.13;;
21543;SDS011;10933;50.754;11.508;2023-06-22T03:07:02;13.75;;;12.75;;
21543;SDS011;10933;50.754;11.508;2023-06-22T03:09:28;13.95;;;13.15;;
21543;SDS011;10933;50.754;11.508;2023-06-22T03:11:54;13.52;;;12.48;;
21543;SDS011;10933;50.754;11.508;2023-06-22T03:14:21;12.50;;;11.60;;
21543;SDS011;10933;50.754;11.508;2023-06-22T03:16:47;13.32;;;12.23;;
21543;SDS011;10933;50.754;11.508;2023-06-22T03:19:13;12.35;;;11.20;;
21543;SDS011;10933;50.754;11.508;2023-06-22T03:21:39;13.27;;;11.73;;
21543;SDS011;10933;50.754;11.508;2023-06-22T03:24:06;13.40;;;12.43;;
21543;SDS011;10933;50.754;11.508;2023-06-22T03:26:33;13.30;;;12.43;;
21543;SDS011;10933;50.754;11.508;2023-06-22T03:28:59;11.45;;;10.70;;
21543;SDS011;10933;50.754;11.508;2023-06-22T03:31:26;13.10;;;12.07;;
21543;SDS011;10933;50.754;11.508;2023-06-22T03:33:52;13.23;;;12.45;;
21543;SDS011;10933;50.754;11.508;2023-06-22T03:36:18;12.73;;;11.77;;
21543;SDS011;10933;50.754;11.508;2023-06-22T03:38:45;13.27;;;12.27;;
21543;SDS011;10933;50.754;11.508;2023-06-22T03:41:12;15.05;;;14.20;;
21543;SDS011;10933;50.754;11.508;2023-06-22T03:43:39;13.10;;;12.30;;
21543;SDS011;10933;50.754;11.508;2023-06-22T03:46:05;16.20;;;14.57;;
21543;SDS011;10933;50.754;11.508;2023-06-22T03:48:31;13.25;;;12.20;;
21543;SDS011;10933;50.754;11.508;2023-06-22T03:51:01;13.38;;;12.40;;
21543;SDS011;10933;50.754;11.508;2023-06-22T03:53:28;13.15;;;12.20;;
21543;SDS011;10933;50.754;11.508;2023-06-22T03:55:54;12.82;;;12.02;;
21543;SDS011;10933;50.754;11.508;2023-06-22T03:58:21;13.68;;;12.88;;
21543;SDS011;10933;50.754;11.508;2023-06-22T04:00:48;13.95;;;13.02;;
21543;SDS011;10933;50.754;11.508;2023-06-22T04:03:16;12.50;;;11.80;;
21543;SDS011;10933;50.754;11.508;2023-06-22T04:05:45;14.02;;;13.23;;
21543;SDS011;10933;50.754;11.508;2023-06-22T04:08:13;36.63;;;27.40;;
21543;SDS011;10933;50.754;11.508;2023-06-22T04:10:39;25.83;;;23.38;;
21543;SDS011;10933;50.754;11.508;2023-06-22T04:13:06;14.50;;;13.52;;
21543;SDS011;10933;50.754;11.508;2023-06-22T04:15:32;17.58;;;10.63;;
21543;SDS011;10933;50.754;11.508;2023-06-22T04:17:58;11.77;;;11.07;;
21543;SDS011;10933;50.754;11.508;2023-06-22T04:20:25;12.27;;;10.75;;
21543;SDS011;10933;50.754;11.508;2023-06-22T04:22:54;11.55;;;10.95;;
21543;SDS011;10933;50.754;11.508;2023-06-22T04:25:20;11.48;;;10.75;;
21543;SDS011;10933;50.754;11.508;2023-06-22T04:27:48;11.48;;;10.80;;
21543;SDS011;10933;50.754;11.508;2023-06-22T04:30:14;10.82;;;10.23;;
21543;SDS011;10933;50.754;11.508;2023-06-22T04:32:41;11.55;;;10.85;;
21543;SDS011;10933;50.754;11.508;2023-06-22T04:35:08;12.45;;;11.60;;
21543;SDS011;10933;50.754;11.508;2023-06-22T04:37:35;11.15;;;10.55;;
21543;SDS011;10933;50.754;11.508;2023-06-22T04:40:01;11.80;;;11.00;;
21543;SDS011;10933;50.754;11.508;2023-06-22T04:42:29;12.07;;;11.18;;
21543;SDS011;10933;50.754;11.508;2023-06-22T04:44:57;11.45;;;10.85;;
21543;SDS011;10933;50.754;11.508;2023-06-22T04:47:23;12.10;;;11.50;;
21543;SDS011;10933;50.754;11.508;2023-06-22T04:49:49;12.13;;;11.52;;
21543;SDS011;10933;50.754;11.508;2023-06-22T04:52:15;10.93;;;10.43;;
21543;SDS011;10933;50.754;11.508;2023-06-22T04:54:42;11.73;;;10.93;;
21543;SDS011;10933;50.754;11.508;2023-06-22T04:57:12;11.88;;;11.10;;
21543;SDS011;10933;50.754;11.508;2023-06-22T04:59:38;12.38;;;11.73;;
21543;SDS011;10933;50.754;11.508;2023-06-22T05:02:06;11.90;;;11.30;;
21543;SDS011;10933;50.754;11.508;2023-06-22T05:04:33;12.07;;;11.45;;
21543;SDS011;10933;50.754;11.508;2023-06-22T05:07:03;12.80;;;12.00;;
21543;SDS011;10933;50.754;11.508;2023-06-22T05:09:30;12.40;;;11.55;;
21543;SDS011;10933;50.754;11.508;2023-06-22T05:11:58;11.77;;;11.00;;
21543;SDS011;10933;50.754;11.508;2023-06-22T05:14:27;12.15;;;11.30;;
21543;SDS011;10933;50.754;11.508;2023-06-22T05:16:53;11.65;;;11.05;;
21543;SDS011;10933;50.754;11.508;2023-06-22T05:19:23;12.48;;;11.77;;
21543;SDS011;10933;50.754;11.508;2023-06-22T05:21:50;12.50;;;11.80;;
21543;SDS011;10933;50.754;11.508;2023-06-22T05:24:16;13.02;;;12.32;;
21543;SDS011;10933;50.754;11.508;2023-06-22T05:26:42;13.23;;;12.63;;
21543;SDS011;10933;50.754;11.508;2023-06-22T05:29:09;12.73;;;12.05;;
21543;SDS011;10933;50.754;11.508;2023-06-22T05:31:35;13.65;;;12.75;;
21543;SDS011;10933;50.754;11.508;2023-06-22T05:34:01;14.07;;;13.13;;
21543;SDS011;10933;50.754;11.508;2023-06-22T05:36:27;17.65;;;16.45;;
21543;SDS011;10933;50.754;11.508;2023-06-22T05:38:53;11.13;;;10.52;;
21543;SDS011;10933;50.754;11.508;2023-06-22T05:41:21;12.15;;;11.55;;
21543;SDS011;10933;50.754;11.508;2023-06-22T05:43:47;9.98;;;9.48;;
21543;SDS011;10933;50.754;11.508;2023-06-22T05:46:14;9.77;;;9.27;;
21543;SDS011;10933;50.754;11.508;2023-06-22T05:48:40;10.63;;;9.48;;
21543;SDS011;10933;50.754;11.508;2023-06-22T05:51:06;9.88;;;9.25;;
21543;SDS011;10933;50.754;11.508;2023-06-22T05:53:32;9.95;;;9.38;;
21543;SDS011;10933;50.754;11.508;2023-06-22T05:55:58;10.00;;;9.50;;
21543;SDS011;10933;50.754;11.508;2023-06-22T05:58:24;9.73;;;9.10;;
21543;SDS011;10933;50.754;11.508;2023-06-22T06:00:51;10.20;;;9.70;;
21543;SDS011;10933;50.754;11.508;2023-06-22T06:03:17;9.57;;;9.07;;
21543;SDS011;10933;50.754;11.508;2023-06-22T06:05:44;10.80;;;10.20;;
21543;SDS011;10933;50.754;11.508;2023-06-22T06:08:10;10.27;;;9.32;;
21543;SDS011;10933;50.754;11.508;2023-06-22T06:10:37;9.82;;;9.32;;
21543;SDS011;10933;50.754;11.508;2023-06-22T06:13:03;9.60;;;9.10;;
21543;SDS011;10933;50.754;11.508;2023-06-22T06:15:29;9.77;;;9.27;;
21543;SDS011;10933;50.754;11.508;2023-06-22T06:17:57;9.20;;;8.73;;
21543;SDS011;10933;50.754;11.508;2023-06-22T06:20:24;9.05;;;8.65;;
21543;SDS011;10933;50.754;11.508;2023-06-22T06:22:52;10.05;;;9.55;;
21543;SDS011;10933;50.754;11.508;2023-06-22T06:25:19;9.95;;;9.35;;
21543;SDS011;10933;50.754;11.508;2023-06-22T06:27:46;10.15;;;9.65;;
21543;SDS011;10933;50.754;11.508;2023-06-22T06:30:15;10.57;;;9.98;;
21543;SDS011;10933;50.754;11.508;2023-06-22T06:32:42;10.50;;;9.73;;
21543;SDS011;10933;50.754;11.508;2023-06-22T06:35:10;10.07;;;9.57;;
21543;SDS011;10933;50.754;11.508;2023-06-22T06:37:38;10.35;;;9.85;;
21543;SDS011;10933;50.754;11.508;2023-06-22T06:40:06;10.70;;;9.98;;
21543;SDS011;10933;50.754;11.508;2023-06-22T06:42:35;10.55;;;10.02;;
21543;SDS011;10933;50.754;11.508;2023-06-22T06:45:14;10.60;;;9.90;;
21543;SDS011;10933;50.754;11.508;2023-06-22T06:47:42;10.13;;;9.63;;
21543;SDS011;10933;50.754;11.508;2023-06-22T06:50:08;10.35;;;9.85;;
21543;SDS011;10933;50.754;11.508;2023-06-22T06:52:35;11.73;;;10.77;;
21543;SDS011;10933;50.754;11.508;2023-06-22T06:55:02;11.10;;;10.40;;
21543;SDS011;10933;50.754;11.508;2023-06-22T06:57:35;11.23;;;10.63;;
21543;SDS011;10933;50.754;11.508;2023-06-22T07:00:08;10.88;;;10.38;;
21543;SDS011;10933;50.754;11.508;2023-06-22T07:02:37;9.50;;;9.02;;
21543;SDS011;10933;50.754;11.508;2023-06-22T07:05:07;9.73;;;9.23;;
21543;SDS011;10933;50.754;11.508;2023-06-22T07:07:34;8.52;;;8.13;;
21543;SDS011;10933;50.754;11.508;2023-06-22T07:10:01;9.73;;;9.23;;
21543;SDS011;10933;50.754;11.508;2023-06-22T07:12:28;9.98;;;9.48;;
21543;SDS011;10933;50.754;11.508;2023-06-22T07:14:56;9.63;;;9.15;;
21543;SDS011;10933;50.754;11.508;2023-06-22T07:17:27;9.77;;;9.27;;
21543;SDS011;10933;50.754;11.508;2023-06-22T07:19:54;9.93;;;9.43;;
21543;SDS011;10933;50.754;11.508;2023-06-22T07:22:20;9.60;;;9.02;;
21543;SDS011;10933;50.754;11.508;2023-06-22T07:24:46;9.63;;;9.02;;
21543;SDS011;10933;50.754;11.508;2023-06-22T07:27:12;8.77;;;8.38;;
21543;SDS011;10933;50.754;11.508;2023-06-22T07:29:41;10.27;;;9.77;;
21543;SDS011;10933;50.754;11.508;2023-06-22T07:32:08;8.18;;;7.78;;
21543;SDS011;10933;50.754;11.508;2023-06-22T07:34:34;8.13;;;7.72;;
21543;SDS011;10933;50.754;11.508;2023-06-22T07:37:00;9.02;;;8.50;;
21543;SDS011;10933;50.754;11.508;2023-06-22T07:39:27;9.32;;;8.88;;
21543;SDS011;10933;50.754;11.508;2023-06-22T07:41:53;8.32;;;7.93;;
21543;SDS011;10933;50.754;11.508;2023-06-22T07:44:20;8.48;;;7.97;;
21543;SDS011;10933;50.754;11.508;2023-06-22T07:46:46;9.07;;;8.57;;
21543;SDS011;10933;50.754;11.508;2023-06-22T07:49:12;9.63;;;8.90;;
21543;SDS011;10933;50.754;11.508;2023-06-22T07:51:39;8.98;;;8.48;;
21543;SDS011;10933;50.754;11.508;2023-06-22T07:54:05;8.70;;;8.30;;
21543;SDS011;10933;50.754;11.508;2023-06-22T07:56:32;9.18;;;8.68;;
21543;SDS011;10933;50.754;11.508;2023-06-22T07:58:58;8.50;;;8.10;;
21543;SDS011;10933;50.754;11.508;2023-06-22T08:01:25;8.77;;;8.30;;
21543;SDS011;10933;50.754;11.508;2023-06-22T08:03:52;7.70;;;7.30;;
21543;SDS011;10933;50.754;11.508;2023-06-22T08:06:18;8.52;;;8.13;;
21543;SDS011;10933;50.754;11.508;2023-06-22T08:08:44;8.50;;;7.97;;
21543;SDS011;10933;50.754;11.508;2023-06-22T08:11:13;8.18;;;7.78;;
21543;SDS011;10933;50.754;11.508;2023-06-22T08:13:39;7.78;;;7.30;;
21543;SDS011;10933;50.754;11.508;2023-06-22T08:16:05;7.82;;;6.82;;
21543;SDS011;10933;50.754;11.508;2023-06-22T08:18:32;8.27;;;7.68;;
21543;SDS011;10933;50.754;11.508;2023-06-22T08:20:58;6.90;;;6.50;;
21543;SDS011;10933;50.754;11.508;2023-06-22T08:23:25;7.13;;;6.82;;
21543;SDS011;10933;50.754;11.508;2023-06-22T08:25:51;6.97;;;6.60;;
21543;SDS011;10933;50.754;11.508;2023-06-22T08:28:17;7.05;;;6.72;;
21543;SDS011;10933;50.754;11.508;2023-06-22T08:30:43;7.45;;;6.82;;
21543;SDS011;10933;50.754;11.508;2023-06-22T08:33:10;6.57;;;6.28;;
21543;SDS011;10933;50.754;11.508;2023-06-22T08:35:36;6.50;;;6.20;;
21543;SDS011;10933;50.754;11.508;2023-06-22T08:38:02;7.00;;;6.35;;
21543;SDS011;10933;50.754;11.508;2023-06-22T08:40:28;6.15;;;5.78;;
21543;SDS011;10933;50.754;11.508;2023-06-22T08:42:55;6.13;;;5.82;;
21543;SDS011;10933;50.754;11.508;2023-06-22T08:45:21;6.47;;;6.07;;
21543;SDS011;10933;50.754;11.508;2023-06-22T08:47:47;6.20;;;5.90;;
21543;SDS011;10933;50.754;11.508;2023-06-22T08:50:14;6.20;;;5.90;;
21543;SDS011;10933;50.754;11.508;2023-06-22T08:52:40;5.93;;;5.63;;
21543;SDS011;10933;50.754;11.508;2023-06-22T08:55:06;5.63;;;5.32;;
21543;SDS011;10933;50.754;11.508;2023-06-22T08:57:34;5.35;;;5.13;;
21543;SDS011;10933;50.754;11.508;2023-06-22T09:00:03;6.25;;;5.65;;
21543;SDS011;10933;50.754;11.508;2023-06-22T09:02:32;7.05;;;5.15;;
21543;SDS011;10933;50.754;11.508;2023-06-22T09:04:58;5.60;;;5.40;;
21543;SDS011;10933;50.754;11.508;2023-06-22T09:07:28;5.80;;;5.43;;
21543;SDS011;10933;50.754;11.508;2023-06-22T09:09:54;5.13;;;4.93;;
21543;SDS011;10933;50.754;11.508;2023-06-22T09:12:21;5.65;;;5.38;;
21543;SDS011;10933;50.754;11.508;2023-06-22T09:14:51;5.60;;;5.30;;
21543;SDS011;10933;50.754;11.508;2023-06-22T09:17:17;4.65;;;4.45;;
21543;SDS011;10933;50.754;11.508;2023-06-22T09:19:43;5.38;;;5.00;;
21543;SDS011;10933;50.754;11.508;2023-06-22T09:22:09;4.30;;;4.10;;
21543;SDS011;10933;50.754;11.508;2023-06-22T09:24:35;4.53;;;4.22;;
21543;SDS011;10933;50.754;11.508;2023-06-22T09:27:02;4.55;;;4.35;;
21543;SDS011;10933;50.754;11.508;2023-06-22T09:29:28;4.10;;;3.90;;
21543;SDS011;10933;50.754;11.508;2023-06-22T09:31:54;3.90;;;3.70;;
21543;SDS011;10933;50.754;11.508;2023-06-22T09:34:20;4.05;;;3.85;;
21543;SDS011;10933;50.754;11.508;2023-06-22T09:36:47;4.07;;;3.88;;
21543;SDS011;10933;50.754;11.508;2023-06-22T09:39:13;4.38;;;4.07;;
21543;SDS011;10933;50.754;11.508;2023-06-22T09:41:39;4.05;;;3.75;;
21543;SDS011;10933;50.754;11.508;2023-06-22T09:44:05;4.70;;;4.50;;
21543;SDS011;10933;50.754;11.508;2023-06-22T09:46:31;4.97;;;4.63;;
21543;SDS011;10933;50.754;11.508;2023-06-22T09:48:57;4.60;;;4.30;;
21543;SDS011;10933;50.754;11.508;2023-06-22T09:51:24;4.10;;;3.90;;
21543;SDS011;10933;50.754;11.508;2023-06-22T09:53:50;4.20;;;4.00;;
21543;SDS011;10933;50.754;11.508;2023-06-22T09:56:17;4.65;;;4.30;;
21543;SDS011;10933;50.754;11.508;2023-06-22T09:58:43;4.55;;;4.35;;
21543;SDS011;10933;50.754;11.508;2023-06-22T10:01:11;3.83;;;3.63;;
21543;SDS011;10933;50.754;11.508;2023-06-22T10:03:40;4.43;;;4.07;;
21543;SDS011;10933;50.754;11.508;2023-06-22T10:06:06;4.30;;;4.10;;
21543;SDS011;10933;50.754;11.508;2023-06-22T10:08:34;4.18;;;3.97;;
21543;SDS011;10933;50.754;11.508;2023-06-22T10:11:01;4.50;;;4.20;;
21543;SDS011;10933;50.754;11.508;2023-06-22T10:13:28;4.10;;;3.90;;
21543;SDS011;10933;50.754;11.508;2023-06-22T10:15:54;4.00;;;3.80;;
21543;SDS011;10933;50.754;11.508;2023-06-22T10:18:20;4.18;;;3.97;;
21543;SDS011;10933;50.754;11.508;2023-06-22T10:20:47;3.90;;;3.70;;
21543;SDS011;10933;50.754;11.508;2023-06-22T10:23:17;4.45;;;3.90;;
21543;SDS011;10933;50.754;11.508;2023-06-22T10:25:47;4.07;;;3.88;;
21543;SDS011;10933;50.754;11.508;2023-06-22T10:28:13;4.38;;;4.18;;
21543;SDS011;10933;50.754;11.508;2023-06-22T10:30:40;4.15;;;3.70;;
21543;SDS011;10933;50.754;11.508;2023-06-22T10:33:07;4.22;;;4.00;;
21543;SDS011;10933;50.754;11.508;2023-06-22T10:35:34;4.78;;;4.57;;
21543;SDS011;10933;50.754;11.508;2023-06-22T10:38:02;3.90;;;3.70;;
21543;SDS011;10933;50.754;11.508;2023-06-22T10:40:29;4.47;;;4.18;;
21543;SDS011;10933;50.754;11.508;2023-06-22T10:42:55;3.92;;;3.72;;
21543;SDS011;10933;50.754;11.508;2023-06-22T10:45:22;4.40;;;4.20;;
21543;SDS011;10933;50.754;11.508;2023-06-22T10:47:48;4.13;;;3.92;;
21543;SDS011;10933;50.754;11.508;2023-06-22T10:50:14;4.00;;;3.80;;
21543;SDS011;10933;50.754;11.508;2023-06-22T10:52:41;4.53;;;4.22;;
21543;SDS011;10933;50.754;11.508;2023-06-22T10:55:08;3.88;;;3.67;;
21543;SDS011;10933;50.754;11.508;2023-06-22T10:57:34;4.28;;;4.07;;
21543;SDS011;10933;50.754;11.508;2023-06-22T11:00:01;3.97;;;3.78;;
21543;SDS011;10933;50.754;11.508;2023-06-22T11:02:30;4.05;;;3.85;;
21543;SDS011;10933;50.754;11.508;2023-06-22T11:04:57;4.45;;;4.25;;
21543;SDS011;10933;50.754;11.508;2023-06-22T11:07:25;4.63;;;4.30;;
21543;SDS011;10933;50.754;11.508;2023-06-22T11:09:53;4.45;;;4.25;;
21543;SDS011;10933;50.754;11.508;2023-06-22T11:12:20;4.72;;;4.43;;
21543;SDS011;10933;50.754;11.508;2023-06-22T11:14:46;4.63;;;4.43;;
21543;SDS011;10933;50.754;11.508;2023-06-22T11:17:12;4.63;;;4.32;;
21543;SDS011;10933;50.754;11.508;2023-06-22T11:19:38;5.60;;;4.50;;
21543;SDS011;10933;50.754;11.508;2023-06-22T11:22:05;4.72;;;4.53;;
21543;SDS011;10933;50.754;11.508;2023-06-22T11:24:31;4.50;;;4.30;;
21543;SDS011;10933;50.754;11.508;2023-06-22T11:26:57;4.93;;;4.60;;
21543;SDS011;10933;50.754;11.508;2023-06-22T11:29:23;4.53;;;4.32;;
21543;SDS011;10933;50.754;11.508;2023-06-22T11:31:49;4.90;;;4.60;;
21543;SDS011;10933;50.754;11.508;2023-06-22T11:34:16;4.90;;;4.50;;
21543;SDS011;10933;50.754;11.508;2023-06-22T11:36:44;4.40;;;4.20;;
21543;SDS011;10933;50.754;11.508;2023-06-22T11:39:10;4.60;;;4.40;;
21543;SDS011;10933;50.754;11.508;2023-06-22T11:41:39;4.40;;;4.20;;
21543;SDS011;10933;50.754;11.508;2023-06-22T11:44:05;4.50;;;4.30;;
21543;SDS011;10933;50.754;11.508;2023-06-22T11:46:31;4.65;;;4.25;;
21543;SDS011;10933;50.754;11.508;2023-06-22T11:48:58;4.32;;;4.13;;
21543;SDS011;10933;50.754;11.508;2023-06-22T11:51:24;4.25;;;4.05;;
21543;SDS011;10933;50.754;11.508;2023-06-22T11:53:51;4.40;;;4.20;;
21543;SDS011;10933;50.754;11.508;2023-06-22T11:56:17;4.68;;;4.47;;
21543;SDS011;10933;50.754;11.508;2023-06-22T11:58:43;3.92;;;3.72;;
21543;SDS011;10933;50.754;11.508;2023-06-22T12:01:09;4.38;;;4.18;;
21543;SDS011;10933;50.754;11.508;2023-06-22T12:03:35;5.05;;;4.72;;
21543;SDS011;10933;50.754;11.508;2023-06-22T12:06:01;4.57;;;4.38;;
21543;SDS011;10933;50.754;11.508;2023-06-22T12:08:27;4.80;;;4.28;;
21543;SDS011;10933;50.754;11.508;2023-06-22T12:10:54;4.60;;;4.40;;
21543;SDS011;10933;50.754;11.508;2023-06-22T12:13:21;5.15;;;4.10;;
21543;SDS011;10933;50.754;11.508;2023-06-22T12:15:47;4.00;;;3.80;;
21543;SDS011;10933;50.754;11.508;2023-06-22T12:18:13;5.03;;;4.75;;
21543;SDS011;10933;50.754;11.508;2023-06-22T12:20:40;4.32;;;4.13;;
21543;SDS011;10933;50.754;11.508;2023-06-22T12:23:06;4.13;;;3.83;;
21543;SDS011;10933;50.754;11.508;2023-06-22T12:25:32;4.30;;;4.10;;
21543;SDS011;10933;50.754;11.508;2023-06-22T12:27:58;4.35;;;4.05;;
21543;SDS011;10933;50.754;11.508;2023-06-22T12:30:24;4.65;;;4.45;;
21543;SDS011;10933;50.754;11.508;2023-06-22T12:32:50;4.28;;;4.07;;
21543;SDS011;10933;50.754;11.508;2023-06-22T12:35:17;5.05;;;4.65;;
21543;SDS011;10933;50.754;11.508;2023-06-22T12:37:43;5.00;;;4.70;;
21543;SDS011;10933;50.754;11.508;2023-06-22T12:40:10;4.43;;;4.22;;
21543;SDS011;10933;50.754;11.508;2023-06-22T12:42:36;6.05;;;5.63;;
21543;SDS011;10933;50.754;11.508;2023-06-22T12:45:02;4.90;;;4.70;;
21543;SDS011;10933;50.754;11.508;2023-06-22T12:47:29;4.53;;;4.32;;
21543;SDS011;10933;50.754;11.508;2023-06-22T12:49:55;4.25;;;4.05;;
21543;SDS011;10933;50.754;11.508;2023-06-22T12:52:21;5.18;;;4.60;;
21543;SDS011;10933;50.754;11.508;2023-06-22T12:54:48;4.40;;;4.18;;
21543;SDS011;10933;50.754;11.508;2023-06-22T12:57:14;4.97;;;4.68;;
21543;SDS011;10933;50.754;11.508;2023-06-22T12:59:40;5.10;;;4.90;;
21543;SDS011;10933;50.754;11.508;2023-06-22T13:02:06;5.50;;;4.80;;
21543;SDS011;10933;50.754;11.508;2023-06-22T13:04:32;4.55;;;4.35;;
21543;SDS011;10933;50.754;11.508;2023-06-22T13:06:59;4.70;;;4.40;;
21543;SDS011;10933;50.754;11.508;2023-06-22T13:09:25;5.05;;;4.70;;
21543;SDS011;10933;50.754;11.508;2023-06-22T13:11:51;5.13;;;4.90;;
21543;SDS011;10933;50.754;11.508;2023-06-22T13:14:18;4.95;;;4.75;;
21543;SDS011;10933;50.754;11.508;2023-06-22T13:16:44;6.30;;;4.80;;
21543;SDS011;10933;50.754;11.508;2023-06-22T13:19:10;4.80;;;4.60;;
21543;SDS011;10933;50.754;11.508;2023-06-22T13:21:37;4.75;;;4.55;;
21543;SDS011;10933;50.754;11.508;2023-06-22T13:24:03;5.13;;;4.82;;
21543;SDS011;10933;50.754;11.508;2023-06-22T13:26:31;4.93;;;4.63;;
21543;SDS011;10933;50.754;11.508;2023-06-22T13:28:57;4.78;;;4.47;;
21543;SDS011;10933;50.754;11.508;2023-06-22T13:31:23;5.35;;;4.88;;
21543;SDS011;10933;50.754;11.508;2023-06-22T13:33:50;5.30;;;5.00;;
21543;SDS011;10933;50.754;11.508;2023-06-22T13:36:17;4.88;;;4.57;;
21543;SDS011;10933;50.754;11.508;2023-06-22T13:38:43;5.15;;;4.85;;
21543;SDS011;10933;50.754;11.508;2023-06-22T13:41:09;5.35;;;5.00;;
21543;SDS011;10933;50.754;11.508;2023-06-22T13:43:36;4.63;;;4.43;;
21543;SDS011;10933;50.754;11.508;2023-06-22T13:46:02;5.22;;;4.93;;
21543;SDS011;10933;50.754;11.508;2023-06-22T13:48:28;4.90;;;4.60;;
21543;SDS011;10933;50.754;11.508;2023-06-22T13:50:54;4.45;;;4.25;;
21543;SDS011;10933;50.754;11.508;2023-06-22T13:53:20;5.10;;;4.80;;
21543;SDS011;10933;50.754;11.508;2023-06-22T13:55:47;4.63;;;4.43;;
21543;SDS011;10933;50.754;11.508;2023-06-22T13:58:13;8.27;;;4.93;;
21543;SDS011;10933;50.754;11.508;2023-06-22T14:00:39;5.32;;;4.47;;
21543;SDS011;10933;50.754;11.508;2023-06-22T14:03:05;5.65;;;5.15;;
21543;SDS011;10933;50.754;11.508;2023-06-22T14:05:32;4.97;;;4.78;;
21543;SDS011;10933;50.754;11.508;2023-06-22T14:07:58;5.10;;;4.80;;
21543;SDS011;10933;50.754;11.508;2023-06-22T14:10:24;5.30;;;4.97;;
21543;SDS011;10933;50.754;11.508;2023-06-22T14:12:50;5.10;;;4.70;;
21543;SDS011;10933;50.754;11.508;2023-06-22T14:15:17;5.18;;;4.80;;
21543;SDS011;10933;50.754;11.508;2023-06-22T14:17:44;4.72;;;4.53;;
21543;SDS011;10933;50.754;11.508;2023-06-22T14:20:10;4.93;;;4.68;;
21543;SDS011;10933;50.754;11.508;2023-06-22T14:22:36;4.50;;;4.30;;
21543;SDS011;10933;50.754;11.508;2023-06-22T14:25:04;4.78;;;4.55;;
21543;SDS011;10933;50.754;11.508;2023-06-22T14:27:30;4.63;;;4.43;;
21543;SDS011;10933;50.754;11.508;2023-06-22T14:29:56;4.80;;;4.50;;
21543;SDS011;10933;50.754;11.508;2023-06-22T14:32:23;4.40;;;4.20;;
21543;SDS011;10933;50.754;11.508;2023-06-22T14:34:50;4.95;;;4.55;;